sensor_id;sensor_type;location;lat;lon;timestamp;pressure;altitude;pressure_sealevel;temperature;humidity
64551;BME280;50945;44.472;-123.352;2023-04-09T00:02:01;100480.22;;;14.11;63.25
64551;BME280;50945;44.472;-123.352;2023-04-09T00:04:27;100468.16;;;14.12;63.20
64551;BME280;50945;44.472;-123.352;2023-04-09T00:06:53;100473.84;;;14.10;63.28
64551;BME280;50945;44.472;-123.352;2023-04-09T00:09:19;100473.00;;;14.10;63.34
64551;BME280;50945;44.472;-123.352;2023-04-09T00:11:46;100467.09;;;14.13;62.65
64551;BME280;50945;44.472;-123.352;2023-04-09T00:14:13;100472.16;;;14.16;62.77
64551;BME280;50945;44.472;-123.352;2023-04-09T00:16:39;100461.59;;;14.19;63.00
64551;BME280;50945;44.472;-123.352;2023-04-09T00:19:06;100457.41;;;14.23;62.02
64551;BME280;50945;44.472;-123.352;2023-04-09T00:21:33;100461.22;;;14.29;62.64
64551;BME280;50945;44.472;-123.352;2023-04-09T00:24:01;100457.22;;;14.32;62.68
64551;BME280;50945;44.472;-123.352;2023-04-09T00:26:27;100452.16;;;14.29;62.06
64551;BME280;50945;44.472;-123.352;2023-04-09T00:28:54;100453.63;;;14.31;62.44
64551;BME280;50945;44.472;-123.352;2023-04-09T00:31:20;100462.06;;;14.30;62.65
64551;BME280;50945;44.472;-123.352;2023-04-09T00:33:47;100459.31;;;14.30;62.82
64551;BME280;50945;44.472;-123.352;2023-04-09T00:36:15;100458.69;;;14.27;62.58
64551;BME280;50945;44.472;-123.352;2023-04-09T00:38:42;100461.84;;;14.24;62.59
64551;BME280;50945;44.472;-123.352;2023-04-09T00:41:08;100459.28;;;14.23;62.84
64551;BME280;50945;44.472;-123.352;2023-04-09T00:43:34;100454.88;;;14.22;62.92
64551;BME280;50945;44.472;-123.352;2023-04-09T00:46:00;100455.28;;;14.19;63.08
64551;BME280;50945;44.472;-123.352;2023-04-09T00:48:27;100451.03;;;14.16;63.60
64551;BME280;50945;44.472;-123.352;2023-04-09T00:50:54;100447.00;;;14.12;63.50
64551;BME280;50945;44.472;-123.352;2023-04-09T00:53:20;100450.19;;;14.09;63.57
64551;BME280;50945;44.472;-123.352;2023-04-09T00:55:46;100438.53;;;14.07;63.47
64551;BME280;50945;44.472;-123.352;2023-04-09T00:58:13;100444.66;;;14.02;64.14
64551;BME280;50945;44.472;-123.352;2023-04-09T01:00:39;100437.44;;;14.01;64.03
64551;BME280;50945;44.472;-123.352;2023-04-09T01:03:06;100440.63;;;13.98;64.39
64551;BME280;50945;44.472;-123.352;2023-04-09T01:08:32;100442.06;;;13.94;64.31
64551;BME280;50945;44.472;-123.352;2023-04-09T01:11:23;100435.72;;;13.94;63.91
64551;BME280;50945;44.472;-123.352;2023-04-09T01:16:31;100439.50;;;13.93;64.78
64551;BME280;50945;44.472;-123.352;2023-04-09T01:21:46;100442.91;;;13.88;64.89
64551;BME280;50945;44.472;-123.352;2023-04-09T01:24:39;100449.63;;;13.85;63.48
64551;BME280;50945;44.472;-123.352;2023-04-09T01:27:12;100450.25;;;13.81;64.67
64551;BME280;50945;44.472;-123.352;2023-04-09T01:29:45;100438.81;;;13.77;64.13
64551;BME280;50945;44.472;-123.352;2023-04-09T01:32:16;100442.81;;;13.75;64.07
64551;BME280;50945;44.472;-123.352;2023-04-09T01:34:44;100446.00;;;13.72;64.29
64551;BME280;50945;44.472;-123.352;2023-04-09T01:37:13;100439.81;;;13.69;64.00
64551;BME280;50945;44.472;-123.352;2023-04-09T01:39:42;100439.19;;;13.67;63.96
64551;BME280;50945;44.472;-123.352;2023-04-09T01:42:09;100438.53;;;13.65;63.87
64551;BME280;50945;44.472;-123.352;2023-04-09T01:44:39;100431.38;;;13.64;64.73
64551;BME280;50945;44.472;-123.352;2023-04-09T01:47:07;100447.19;;;13.62;64.26
64551;BME280;50945;44.472;-123.352;2023-04-09T01:49:34;100453.50;;;13.56;64.77
64551;BME280;50945;44.472;-123.352;2023-04-09T01:52:01;100450.50;;;13.51;64.43
64551;BME280;50945;44.472;-123.352;2023-04-09T01:54:27;100445.59;;;13.46;65.05
64551;BME280;50945;44.472;-123.352;2023-04-09T01:56:56;100443.28;;;13.43;65.03
64551;BME280;50945;44.472;-123.352;2023-04-09T01:59:23;100438.00;;;13.42;64.71
64551;BME280;50945;44.472;-123.352;2023-04-09T02:01:53;100431.88;;;13.40;64.74
64551;BME280;50945;44.472;-123.352;2023-04-09T02:04:34;100440.50;;;13.37;64.62
64551;BME280;50945;44.472;-123.352;2023-04-09T02:07:16;100444.47;;;13.34;64.71
64551;BME280;50945;44.472;-123.352;2023-04-09T02:09:45;100448.47;;;13.31;64.20
64551;BME280;50945;44.472;-123.352;2023-04-09T02:12:17;100447.81;;;13.29;64.67
64551;BME280;50945;44.472;-123.352;2023-04-09T02:14:45;100446.97;;;13.29;64.92
64551;BME280;50945;44.472;-123.352;2023-04-09T02:17:13;100439.97;;;13.26;64.65
64551;BME280;50945;44.472;-123.352;2023-04-09T02:19:44;100430.88;;;13.26;64.67
64551;BME280;50945;44.472;-123.352;2023-04-09T02:22:12;100434.03;;;13.23;64.54
64551;BME280;50945;44.472;-123.352;2023-04-09T02:24:39;100438.03;;;13.20;64.76
64551;BME280;50945;44.472;-123.352;2023-04-09T02:27:06;100433.13;;;13.16;64.69
64551;BME280;50945;44.472;-123.352;2023-04-09T02:29:32;100438.38;;;13.10;64.74
64551;BME280;50945;44.472;-123.352;2023-04-09T02:31:58;100433.69;;;13.04;65.37
64551;BME280;50945;44.472;-123.352;2023-04-09T02:34:26;100432.78;;;12.97;65.56
64551;BME280;50945;44.472;-123.352;2023-04-09T02:36:52;100426.41;;;12.90;65.65
64551;BME280;50945;44.472;-123.352;2023-04-09T02:39:20;100423.78;;;12.82;65.81
64551;BME280;50945;44.472;-123.352;2023-04-09T02:41:46;100430.28;;;12.74;66.10
64551;BME280;50945;44.472;-123.352;2023-04-09T02:44:12;100429.38;;;12.67;66.20
64551;BME280;50945;44.472;-123.352;2023-04-09T02:46:40;100434.78;;;12.60;66.11
64551;BME280;50945;44.472;-123.352;2023-04-09T02:49:07;100436.59;;;12.53;66.49
64551;BME280;50945;44.472;-123.352;2023-04-09T02:51:36;100439.28;;;12.46;66.87
64551;BME280;50945;44.472;-123.352;2023-04-09T02:54:03;100435.44;;;12.41;67.53
64551;BME280;50945;44.472;-123.352;2023-04-09T02:56:29;100435.72;;;12.31;68.34
64551;BME280;50945;44.472;-123.352;2023-04-09T02:58:55;100439.63;;;12.22;68.66
64551;BME280;50945;44.472;-123.352;2023-04-09T03:01:22;100445.25;;;12.13;69.14
64551;BME280;50945;44.472;-123.352;2023-04-09T03:03:51;100441.59;;;12.06;69.56
64551;BME280;50945;44.472;-123.352;2023-04-09T03:06:19;100444.63;;;11.96;70.16
64551;BME280;50945;44.472;-123.352;2023-04-09T03:08:45;100447.06;;;11.91;70.19
64551;BME280;50945;44.472;-123.352;2023-04-09T03:11:11;100450.16;;;11.88;70.33
64551;BME280;50945;44.472;-123.352;2023-04-09T03:13:38;100454.16;;;11.86;70.74
64551;BME280;50945;44.472;-123.352;2023-04-09T03:16:04;100460.00;;;11.83;73.15
64551;BME280;50945;44.472;-123.352;2023-04-09T03:18:31;100463.78;;;11.82;71.20
64551;BME280;50945;44.472;-123.352;2023-04-09T03:20:57;100460.59;;;11.78;71.45
64551;BME280;50945;44.472;-123.352;2023-04-09T03:23:23;100457.38;;;11.74;71.51
64551;BME280;50945;44.472;-123.352;2023-04-09T03:25:59;100458.13;;;11.68;71.49
64551;BME280;50945;44.472;-123.352;2023-04-09T03:28:26;100457.47;;;11.66;71.83
64551;BME280;50945;44.472;-123.352;2023-04-09T03:30:52;100461.03;;;11.67;71.90
64551;BME280;50945;44.472;-123.352;2023-04-09T03:33:18;100477.47;;;11.67;72.38
64551;BME280;50945;44.472;-123.352;2023-04-09T03:35:45;100481.28;;;11.66;72.46
64551;BME280;50945;44.472;-123.352;2023-04-09T03:38:11;100475.97;;;11.64;72.65
64551;BME280;50945;44.472;-123.352;2023-04-09T03:40:37;100478.91;;;11.63;73.23
64551;BME280;50945;44.472;-123.352;2023-04-09T03:43:03;100485.59;;;11.60;73.13
64551;BME280;50945;44.472;-123.352;2023-04-09T03:45:32;100486.34;;;11.54;73.38
64551;BME280;50945;44.472;-123.352;2023-04-09T03:47:58;100491.25;;;11.44;73.47
64551;BME280;50945;44.472;-123.352;2023-04-09T03:50:25;100492.00;;;11.37;73.64
64551;BME280;50945;44.472;-123.352;2023-04-09T03:52:51;100489.81;;;11.33;73.65
64551;BME280;50945;44.472;-123.352;2023-04-09T03:55:19;100498.22;;;11.31;73.78
64551;BME280;50945;44.472;-123.352;2023-04-09T03:57:45;100499.63;;;11.27;73.49
64551;BME280;50945;44.472;-123.352;2023-04-09T04:00:12;100493.69;;;11.23;73.21
64551;BME280;50945;44.472;-123.352;2023-04-09T04:02:38;100493.19;;;11.20;73.57
64551;BME280;50945;44.472;-123.352;2023-04-09T04:05:06;100500.94;;;11.16;73.21
64551;BME280;50945;44.472;-123.352;2023-04-09T04:07:35;100499.41;;;11.14;73.11
64551;BME280;50945;44.472;-123.352;2023-04-09T04:10:06;100508.66;;;11.13;73.11
64551;BME280;50945;44.472;-123.352;2023-04-09T04:12:32;100509.84;;;11.10;73.00
64551;BME280;50945;44.472;-123.352;2023-04-09T04:15:00;100521.00;;;11.09;73.45
64551;BME280;50945;44.472;-123.352;2023-04-09T04:17:26;100520.13;;;11.08;73.30
64551;BME280;50945;44.472;-123.352;2023-04-09T04:19:52;100523.25;;;11.05;73.39
64551;BME280;50945;44.472;-123.352;2023-04-09T04:22:19;100526.38;;;11.02;73.84
64551;BME280;50945;44.472;-123.352;2023-04-09T04:24:46;100525.69;;;11.00;74.38
64551;BME280;50945;44.472;-123.352;2023-04-09T04:27:13;100531.34;;;10.98;74.36
64551;BME280;50945;44.472;-123.352;2023-04-09T04:29:39;100527.78;;;10.98;73.66
64551;BME280;50945;44.472;-123.352;2023-04-09T04:32:05;100527.78;;;10.98;73.81
64551;BME280;50945;44.472;-123.352;2023-04-09T04:34:31;100529.44;;;10.99;74.51
64551;BME280;50945;44.472;-123.352;2023-04-09T04:36:59;100528.78;;;10.97;73.83
64551;BME280;50945;44.472;-123.352;2023-04-09T04:39:25;100531.03;;;10.93;74.11
64551;BME280;50945;44.472;-123.352;2023-04-09T04:41:54;100536.03;;;10.90;73.95
64551;BME280;50945;44.472;-123.352;2023-04-09T04:44:23;100537.63;;;10.84;74.38
64551;BME280;50945;44.472;-123.352;2023-04-09T04:46:50;100540.03;;;10.79;74.23
64551;BME280;50945;44.472;-123.352;2023-04-09T04:49:16;100541.44;;;10.75;74.59
64551;BME280;50945;44.472;-123.352;2023-04-09T04:51:42;100545.72;;;10.69;74.32
64551;BME280;50945;44.472;-123.352;2023-04-09T04:54:08;100546.97;;;10.67;74.41
64551;BME280;50945;44.472;-123.352;2023-04-09T04:56:35;100547.50;;;10.62;74.64
64551;BME280;50945;44.472;-123.352;2023-04-09T04:59:01;100541.34;;;10.60;75.34
64551;BME280;50945;44.472;-123.352;2023-04-09T05:01:28;100540.69;;;10.58;75.07
64551;BME280;50945;44.472;-123.352;2023-04-09T05:03:54;100554.88;;;10.53;75.34
64551;BME280;50945;44.472;-123.352;2023-04-09T05:06:20;100556.94;;;10.51;75.26
64551;BME280;50945;44.472;-123.352;2023-04-09T05:08:47;100562.59;;;10.50;75.43
64551;BME280;50945;44.472;-123.352;2023-04-09T05:11:13;100564.66;;;10.48;75.70
64551;BME280;50945;44.472;-123.352;2023-04-09T05:13:41;100572.00;;;10.47;75.79
64551;BME280;50945;44.472;-123.352;2023-04-09T05:16:14;100574.25;;;10.43;75.82
64551;BME280;50945;44.472;-123.352;2023-04-09T05:18:40;100568.16;;;10.33;77.42
64551;BME280;50945;44.472;-123.352;2023-04-09T05:21:11;100572.94;;;10.31;76.12
64551;BME280;50945;44.472;-123.352;2023-04-09T05:23:38;100567.63;;;10.30;75.98
64551;BME280;50945;44.472;-123.352;2023-04-09T05:26:04;100570.69;;;10.26;76.28
64551;BME280;50945;44.472;-123.352;2023-04-09T05:28:32;100571.91;;;10.24;75.54
64551;BME280;50945;44.472;-123.352;2023-04-09T05:30:58;100569.19;;;10.24;75.93
64551;BME280;50945;44.472;-123.352;2023-04-09T05:33:25;100566.47;;;10.24;76.03
64551;BME280;50945;44.472;-123.352;2023-04-09T05:35:51;100561.16;;;10.22;76.23
64551;BME280;50945;44.472;-123.352;2023-04-09T05:38:22;100563.91;;;10.22;75.85
64551;BME280;50945;44.472;-123.352;2023-04-09T05:40:50;100555.69;;;10.22;76.69
64551;BME280;50945;44.472;-123.352;2023-04-09T05:43:16;100553.31;;;10.19;76.67
64551;BME280;50945;44.472;-123.352;2023-04-09T05:45:42;100562.56;;;10.18;76.54
64551;BME280;50945;44.472;-123.352;2023-04-09T05:48:12;100555.19;;;10.19;76.03
64551;BME280;50945;44.472;-123.352;2023-04-09T05:50:38;100556.72;;;10.21;76.09
64551;BME280;50945;44.472;-123.352;2023-04-09T05:53:04;100551.47;;;10.20;77.47
64551;BME280;50945;44.472;-123.352;2023-04-09T05:55:31;100546.66;;;10.22;76.09
64551;BME280;50945;44.472;-123.352;2023-04-09T05:57:57;100546.66;;;10.22;75.56
64551;BME280;50945;44.472;-123.352;2023-04-09T06:00:25;100552.78;;;10.24;75.81
64551;BME280;50945;44.472;-123.352;2023-04-09T06:02:51;100549.22;;;10.23;75.73
64551;BME280;50945;44.472;-123.352;2023-04-09T06:05:17;100555.03;;;10.20;76.26
64551;BME280;50945;44.472;-123.352;2023-04-09T06:07:43;100553.50;;;10.18;75.83
64551;BME280;50945;44.472;-123.352;2023-04-09T06:10:10;100549.25;;;10.15;76.38
64551;BME280;50945;44.472;-123.352;2023-04-09T06:12:37;100546.84;;;10.12;76.52
64551;BME280;50945;44.472;-123.352;2023-04-09T06:15:04;100543.28;;;10.12;77.31
64551;BME280;50945;44.472;-123.352;2023-04-09T06:17:31;100545.19;;;10.11;76.54
64551;BME280;50945;44.472;-123.352;2023-04-09T06:19:58;100536.97;;;10.11;76.61
64551;BME280;50945;44.472;-123.352;2023-04-09T06:22:28;100535.09;;;10.12;76.57
64551;BME280;50945;44.472;-123.352;2023-04-09T06:24:54;100532.53;;;10.10;76.43
64551;BME280;50945;44.472;-123.352;2023-04-09T06:27:21;100534.59;;;10.08;76.88
64551;BME280;50945;44.472;-123.352;2023-04-09T06:29:49;100534.78;;;10.06;77.53
64551;BME280;50945;44.472;-123.352;2023-04-09T06:32:15;100533.94;;;10.06;78.29
64551;BME280;50945;44.472;-123.352;2023-04-09T06:34:43;100530.31;;;10.05;78.23
64551;BME280;50945;44.472;-123.352;2023-04-09T06:37:09;100523.00;;;10.06;78.77
64551;BME280;50945;44.472;-123.352;2023-04-09T06:39:36;100517.88;;;10.03;78.98
64551;BME280;50945;44.472;-123.352;2023-04-09T06:42:02;100527.28;;;10.00;79.48
64551;BME280;50945;44.472;-123.352;2023-04-09T06:44:33;100526.97;;;9.95;79.23
64551;BME280;50945;44.472;-123.352;2023-04-09T06:46:59;100535.69;;;9.90;78.88
64551;BME280;50945;44.472;-123.352;2023-04-09T06:49:26;100535.34;;;9.85;79.00
64551;BME280;50945;44.472;-123.352;2023-04-09T06:51:52;100535.34;;;9.85;79.60
64551;BME280;50945;44.472;-123.352;2023-04-09T06:54:19;100539.81;;;9.86;79.40
64551;BME280;50945;44.472;-123.352;2023-04-09T06:56:45;100537.91;;;9.87;80.00
64551;BME280;50945;44.472;-123.352;2023-04-09T06:59:11;100530.78;;;9.86;79.82
64551;BME280;50945;44.472;-123.352;2023-04-09T07:01:38;100523.09;;;9.81;79.99
64551;BME280;50945;44.472;-123.352;2023-04-09T07:04:05;100523.78;;;9.75;79.58
64551;BME280;50945;44.472;-123.352;2023-04-09T07:06:31;100534.19;;;9.71;79.74
64551;BME280;50945;44.472;-123.352;2023-04-09T07:08:57;100534.56;;;9.68;79.27
64551;BME280;50945;44.472;-123.352;2023-04-09T07:11:23;100538.13;;;9.69;78.77
64551;BME280;50945;44.472;-123.352;2023-04-09T07:13:50;100543.59;;;9.69;78.79
64551;BME280;50945;44.472;-123.352;2023-04-09T07:16:16;100539.16;;;9.68;78.64
64551;BME280;50945;44.472;-123.352;2023-04-09T07:18:42;100540.88;;;9.69;78.59
64551;BME280;50945;44.472;-123.352;2023-04-09T07:21:08;100541.53;;;9.71;78.06
64551;BME280;50945;44.472;-123.352;2023-04-09T07:23:35;100542.38;;;9.71;77.87
64551;BME280;50945;44.472;-123.352;2023-04-09T07:26:04;100548.72;;;9.72;78.21
64551;BME280;50945;44.472;-123.352;2023-04-09T07:28:31;100544.44;;;9.69;78.48
64551;BME280;50945;44.472;-123.352;2023-04-09T07:30:59;100537.63;;;9.65;78.73
64551;BME280;50945;44.472;-123.352;2023-04-09T07:33:27;100541.53;;;9.63;79.02
64551;BME280;50945;44.472;-123.352;2023-04-09T07:35:53;100541.91;;;9.60;79.51
64551;BME280;50945;44.472;-123.352;2023-04-09T07:38:20;100551.97;;;9.59;78.73
64551;BME280;50945;44.472;-123.352;2023-04-09T07:40:47;100560.53;;;9.56;79.03
64551;BME280;50945;44.472;-123.352;2023-04-09T07:43:13;100557.28;;;9.52;79.66
64551;BME280;50945;44.472;-123.352;2023-04-09T07:45:39;100563.09;;;9.49;79.60
64551;BME280;50945;44.472;-123.352;2023-04-09T07:48:05;100556.28;;;9.45;80.29
64551;BME280;50945;44.472;-123.352;2023-04-09T07:50:33;100552.88;;;9.43;80.31
64551;BME280;50945;44.472;-123.352;2023-04-09T07:53:00;100554.91;;;9.41;80.31
64551;BME280;50945;44.472;-123.352;2023-04-09T07:55:26;100548.59;;;9.41;80.92
64551;BME280;50945;44.472;-123.352;2023-04-09T07:57:52;100547.75;;;9.40;84.06
64551;BME280;50945;44.472;-123.352;2023-04-09T08:00:19;100548.44;;;9.42;83.62
64551;BME280;50945;44.472;-123.352;2023-04-09T08:02:45;100546.38;;;9.44;80.92
64551;BME280;50945;44.472;-123.352;2023-04-09T08:05:11;100544.50;;;9.45;80.89
64551;BME280;50945;44.472;-123.352;2023-04-09T08:07:37;100550.81;;;9.45;80.69
64551;BME280;50945;44.472;-123.352;2023-04-09T08:10:05;100561.56;;;9.47;80.91
64551;BME280;50945;44.472;-123.352;2023-04-09T08:12:33;100556.09;;;9.47;80.68
64551;BME280;50945;44.472;-123.352;2023-04-09T08:15:01;100566.31;;;9.45;80.72
64551;BME280;50945;44.472;-123.352;2023-04-09T08:17:28;100561.72;;;9.45;80.87
64551;BME280;50945;44.472;-123.352;2023-04-09T08:19:55;100565.47;;;9.44;81.06
64551;BME280;50945;44.472;-123.352;2023-04-09T08:22:21;100556.44;;;9.44;80.85
64551;BME280;50945;44.472;-123.352;2023-04-09T08:24:51;100561.91;;;9.44;81.75
64551;BME280;50945;44.472;-123.352;2023-04-09T08:27:18;100562.75;;;9.44;81.30
64551;BME280;50945;44.472;-123.352;2023-04-09T08:29:44;100562.06;;;9.42;84.73
64551;BME280;50945;44.472;-123.352;2023-04-09T08:32:10;100563.09;;;9.41;82.05
64551;BME280;50945;44.472;-123.352;2023-04-09T08:34:37;100572.97;;;9.42;82.20
64551;BME280;50945;44.472;-123.352;2023-04-09T08:37:03;100575.53;;;9.44;82.37
64551;BME280;50945;44.472;-123.352;2023-04-09T08:39:29;100581.00;;;9.44;83.41
64551;BME280;50945;44.472;-123.352;2023-04-09T08:41:58;100560.19;;;9.43;83.32
64551;BME280;50945;44.472;-123.352;2023-04-09T08:44:28;100566.84;;;9.40;83.83
64551;BME280;50945;44.472;-123.352;2023-04-09T08:46:55;100563.25;;;9.40;83.36
64551;BME280;50945;44.472;-123.352;2023-04-09T08:49:21;100555.78;;;9.42;83.30
64551;BME280;50945;44.472;-123.352;2023-04-09T08:51:48;100550.31;;;9.42;84.39
64551;BME280;50945;44.472;-123.352;2023-04-09T08:54:15;100551.50;;;9.39;84.34
64551;BME280;50945;44.472;-123.352;2023-04-09T08:56:43;100559.69;;;9.39;84.15
64551;BME280;50945;44.472;-123.352;2023-04-09T08:59:09;100548.59;;;9.41;84.56
64551;BME280;50945;44.472;-123.352;2023-04-09T09:01:35;100559.69;;;9.39;84.93
64551;BME280;50945;44.472;-123.352;2023-04-09T09:04:04;100557.78;;;9.40;84.78
64551;BME280;50945;44.472;-123.352;2023-04-09T09:06:32;100565.97;;;9.40;84.34
64551;BME280;50945;44.472;-123.352;2023-04-09T09:09:01;100564.78;;;9.42;83.98
64551;BME280;50945;44.472;-123.352;2023-04-09T09:11:28;100558.50;;;9.42;84.67
64551;BME280;50945;44.472;-123.352;2023-04-09T09:14:08;100565.13;;;9.39;83.73
64551;BME280;50945;44.472;-123.352;2023-04-09T09:16:37;100563.94;;;9.33;84.73
64551;BME280;50945;44.472;-123.352;2023-04-09T09:19:28;100561.38;;;9.32;86.01
64551;BME280;50945;44.472;-123.352;2023-04-09T09:22:03;100568.91;;;9.30;85.69
64551;BME280;50945;44.472;-123.352;2023-04-09T09:24:30;100576.41;;;9.28;85.31
64551;BME280;50945;44.472;-123.352;2023-04-09T09:27:00;100557.31;;;9.28;85.15
64551;BME280;50945;44.472;-123.352;2023-04-09T09:29:27;100559.38;;;9.26;84.79
64551;BME280;50945;44.472;-123.352;2023-04-09T09:31:54;100561.75;;;9.21;85.31
64551;BME280;50945;44.472;-123.352;2023-04-09T09:34:22;100556.47;;;9.19;84.65
64551;BME280;50945;44.472;-123.352;2023-04-09T09:36:48;100553.72;;;9.19;84.97
64551;BME280;50945;44.472;-123.352;2023-04-09T09:39:16;100553.72;;;9.19;85.44
64551;BME280;50945;44.472;-123.352;2023-04-09T09:41:43;100559.53;;;9.16;84.54
64551;BME280;50945;44.472;-123.352;2023-04-09T09:44:12;100571.97;;;9.10;84.69
64551;BME280;50945;44.472;-123.352;2023-04-09T09:46:55;100568.72;;;9.07;84.27
64551;BME280;50945;44.472;-123.352;2023-04-09T09:49:22;100562.59;;;9.05;85.27
64551;BME280;50945;44.472;-123.352;2023-04-09T09:51:49;100559.88;;;9.05;85.38
64551;BME280;50945;44.472;-123.352;2023-04-09T09:54:17;100551.53;;;9.06;85.67
64551;BME280;50945;44.472;-123.352;2023-04-09T09:56:51;100543.19;;;9.08;85.88
64551;BME280;50945;44.472;-123.352;2023-04-09T09:59:22;100539.41;;;9.09;85.56
64551;BME280;50945;44.472;-123.352;2023-04-09T10:01:55;100545.91;;;9.08;86.46
64551;BME280;50945;44.472;-123.352;2023-04-09T10:04:27;100548.44;;;9.09;86.52
64551;BME280;50945;44.472;-123.352;2023-04-09T10:06:55;100536.69;;;9.09;86.38
64551;BME280;50945;44.472;-123.352;2023-04-09T10:09:23;100548.44;;;9.09;86.15
64551;BME280;50945;44.472;-123.352;2023-04-09T10:11:53;100545.72;;;9.09;86.21
64551;BME280;50945;44.472;-123.352;2023-04-09T10:14:20;100539.41;;;9.09;86.17
64551;BME280;50945;44.472;-123.352;2023-04-09T10:16:47;100539.56;;;9.07;91.05
64551;BME280;50945;44.472;-123.352;2023-04-09T10:19:13;100532.44;;;9.06;87.24
64551;BME280;50945;44.472;-123.352;2023-04-09T10:22:00;100531.56;;;9.06;87.33
64551;BME280;50945;44.472;-123.352;2023-04-09T10:24:29;100530.72;;;9.05;86.73
64551;BME280;50945;44.472;-123.352;2023-04-09T10:27:01;100530.03;;;9.03;87.11
64551;BME280;50945;44.472;-123.352;2023-04-09T10:29:33;100534.81;;;9.01;86.78
64551;BME280;50945;44.472;-123.352;2023-04-09T10:32:06;100534.97;;;9.00;86.97
64551;BME280;50945;44.472;-123.352;2023-04-09T10:34:40;100535.81;;;9.00;87.59
64551;BME280;50945;44.472;-123.352;2023-04-09T10:37:30;100547.06;;;8.97;86.99
64551;BME280;50945;44.472;-123.352;2023-04-09T10:39:55;100539.91;;;8.88;87.09
64551;BME280;50945;44.472;-123.352;2023-04-09T10:42:28;100541.13;;;8.85;87.34
64551;BME280;50945;44.472;-123.352;2023-04-09T10:45:10;100533.78;;;8.86;87.95
64551;BME280;50945;44.472;-123.352;2023-04-09T10:47:39;100527.47;;;8.85;87.23
64551;BME280;50945;44.472;-123.352;2023-04-09T10:50:25;100531.91;;;8.86;87.69
64551;BME280;50945;44.472;-123.352;2023-04-09T10:52:56;100531.72;;;8.88;87.50
64551;BME280;50945;44.472;-123.352;2023-04-09T10:55:48;100525.44;;;8.87;89.18
64551;BME280;50945;44.472;-123.352;2023-04-09T10:58:18;100529.88;;;8.88;88.33
64551;BME280;50945;44.472;-123.352;2023-04-09T11:00:47;100527.31;;;8.87;88.45
64551;BME280;50945;44.472;-123.352;2023-04-09T11:03:23;100535.50;;;8.87;88.27
64551;BME280;50945;44.472;-123.352;2023-04-09T11:05:54;100535.50;;;8.87;88.37
64551;BME280;50945;44.472;-123.352;2023-04-09T11:08:21;100541.78;;;8.87;88.51
64551;BME280;50945;44.472;-123.352;2023-04-09T11:10:47;100543.66;;;8.87;88.07
64551;BME280;50945;44.472;-123.352;2023-04-09T11:13:15;100539.56;;;8.83;87.30
64551;BME280;50945;44.472;-123.352;2023-04-09T11:15:43;100540.41;;;8.75;87.43
64551;BME280;50945;44.472;-123.352;2023-04-09T11:18:14;100529.50;;;8.67;88.17
64551;BME280;50945;44.472;-123.352;2023-04-09T11:20:40;100534.78;;;8.60;88.16
64551;BME280;50945;44.472;-123.352;2023-04-09T11:23:06;100527.78;;;8.57;88.11
64551;BME280;50945;44.472;-123.352;2023-04-09T11:25:33;100538.16;;;8.54;89.30
64551;BME280;50945;44.472;-123.352;2023-04-09T11:28:02;100542.09;;;8.51;89.00
64551;BME280;50945;44.472;-123.352;2023-04-09T11:30:33;100552.31;;;8.49;89.59
64551;BME280;50945;44.472;-123.352;2023-04-09T11:33:00;100547.19;;;8.46;89.99
64551;BME280;50945;44.472;-123.352;2023-04-09T11:35:26;100527.06;;;8.47;89.92
64551;BME280;50945;44.472;-123.352;2023-04-09T11:37:53;100506.66;;;8.51;89.05
64551;BME280;50945;44.472;-123.352;2023-04-09T11:40:24;100507.19;;;8.55;88.95
64551;BME280;50945;44.472;-123.352;2023-04-09T11:42:53;100511.44;;;8.57;88.73
64551;BME280;50945;44.472;-123.352;2023-04-09T11:45:22;100511.09;;;8.61;89.12
64551;BME280;50945;44.472;-123.352;2023-04-09T11:47:49;100525.41;;;8.63;89.47
64551;BME280;50945;44.472;-123.352;2023-04-09T11:50:16;100523.53;;;8.63;88.62
64551;BME280;50945;44.472;-123.352;2023-04-09T11:52:44;100516.38;;;8.62;88.59
64551;BME280;50945;44.472;-123.352;2023-04-09T11:55:12;100518.06;;;8.63;88.99
64551;BME280;50945;44.472;-123.352;2023-04-09T11:57:47;100522.84;;;8.61;89.21
64551;BME280;50945;44.472;-123.352;2023-04-09T12:00:15;100524.88;;;8.59;88.65
64551;BME280;50945;44.472;-123.352;2023-04-09T12:02:47;100522.31;;;8.57;87.99
64551;BME280;50945;44.472;-123.352;2023-04-09T12:05:24;100509.38;;;8.60;88.37
64551;BME280;50945;44.472;-123.352;2023-04-09T12:07:55;100502.94;;;8.61;88.05
64551;BME280;50945;44.472;-123.352;2023-04-09T12:10:29;100519.97;;;8.63;88.74
64551;BME280;50945;44.472;-123.352;2023-04-09T12:13:04;100530.84;;;8.63;88.58
64551;BME280;50945;44.472;-123.352;2023-04-09T12:15:33;100522.69;;;8.63;88.20
64551;BME280;50945;44.472;-123.352;2023-04-09T12:17:59;100530.00;;;8.62;88.44
64551;BME280;50945;44.472;-123.352;2023-04-09T12:20:34;100524.72;;;8.61;89.27
64551;BME280;50945;44.472;-123.352;2023-04-09T12:23:03;100521.16;;;8.60;89.31
64551;BME280;50945;44.472;-123.352;2023-04-09T12:25:40;100512.31;;;8.58;89.28
64551;BME280;50945;44.472;-123.352;2023-04-09T12:28:10;100516.03;;;8.57;89.86
64551;BME280;50945;44.472;-123.352;2023-04-09T12:30:36;100511.94;;;8.53;89.38
64551;BME280;50945;44.472;-123.352;2023-04-09T12:33:03;100514.84;;;8.51;88.95
64551;BME280;50945;44.472;-123.352;2023-04-09T12:35:29;100513.44;;;8.47;94.81
64551;BME280;50945;44.472;-123.352;2023-04-09T12:37:55;100504.59;;;8.45;91.09
64551;BME280;50945;44.472;-123.352;2023-04-09T12:40:21;100504.59;;;8.45;90.41